Time;durP1;ratioP1;P1;durP2;ratioP2;P2;SDS_P1;SDS_P2;PMS_P1;PMS_P2;Temp;Humidity;BMP_temperature;BMP_pressure;BME280_temperature;BME280_humidity;BME280_pressure;Samples;Min_cycle;Max_cycle;Signal;HPM_P1;HPM_P2
2023/08/25 00:01:03;;;;;;;18.58;13.82;;;;;;;18.72;100.00;100774.78;10435724;28;20099;-68
2023/08/25 00:06:03;;;;;;;21.10;14.63;;;;;;;18.66;100.00;100773.25;10438104;28;20117;-67
2023/08/25 00:11:04;;;;;;;27.27;16.27;;;;;;;18.61;100.00;100767.78;10438406;28;20053;-67
2023/08/25 00:16:05;;;;;;;22.45;16.13;;;;;;;18.54;100.00;100773.78;10454491;28;20101;-68
2023/08/25 00:21:05;;;;;;;25.38;17.17;;;;;;;18.50;100.00;100771.91;10438440;28;20037;-67
2023/08/25 00:26:06;;;;;;;29.42;19.13;;;;;;;18.46;100.00;100773.66;10439232;28;20048;-67
2023/08/25 00:31:06;;;;;;;22.77;17.95;;;;;;;18.42;100.00;100778.22;10435056;28;20404;-68
2023/08/25 00:36:07;;;;;;;26.05;16.55;;;;;;;18.37;100.00;100783.91;10434113;28;20041;-67
2023/08/25 00:41:08;;;;;;;27.92;19.02;;;;;;;18.31;100.00;100780.38;10434098;28;20128;-68
2023/08/25 00:46:08;;;;;;;27.52;19.52;;;;;;;18.38;100.00;100777.22;10440644;28;20047;-67
2023/08/25 00:51:09;;;;;;;27.05;21.23;;;;;;;18.48;100.00;100768.59;10436069;28;20048;-67
2023/08/25 00:56:09;;;;;;;31.63;21.10;;;;;;;18.47;100.00;100769.75;10433000;28;20052;-65
2023/08/25 01:01:10;;;;;;;30.58;20.35;;;;;;;18.41;100.00;100757.88;10407545;28;20057;-68
2023/08/25 01:06:10;;;;;;;28.17;21.38;;;;;;;18.49;100.00;100771.09;10417353;28;20045;-67
2023/08/25 01:11:29;;;;;;;27.73;22.65;;;;;;;18.57;100.00;100783.50;10434175;28;20069;-68
2023/08/25 01:16:34;;;;;;;29.00;20.48;;;;;;;18.65;100.00;100779.97;10428729;28;20057;-67
2023/08/25 01:21:35;;;;;;;24.75;19.60;;;;;;;18.73;100.00;100782.03;10435134;28;20535;-67
2023/08/25 01:26:36;;;;;;;26.05;19.00;;;;;;;18.80;100.00;100780.81;10433077;28;20050;-67
2023/08/25 01:31:36;;;;;;;29.27;20.02;;;;;;;18.84;100.00;100788.25;10420586;28;20048;-67
2023/08/25 01:36:42;;;;;;;30.95;21.92;;;;;;;18.89;100.00;100790.09;10431910;28;20579;-68
2023/08/25 01:41:55;;;;;;;33.30;21.63;;;;;;;18.91;100.00;100782.22;10432941;28;20060;-68
2023/08/25 01:47:00;;;;;;;30.90;22.60;;;;;;;18.95;100.00;100786.03;10423804;28;20048;-67
2023/08/25 01:52:01;;;;;;;31.80;22.23;;;;;;;19.00;100.00;100790.72;10431104;28;20033;-68
2023/08/25 01:57:01;;;;;;;28.42;21.63;;;;;;;19.01;100.00;100781.19;10437275;28;20064;-67
2023/08/25 02:02:02;;;;;;;30.85;22.58;;;;;;;18.87;100.00;100792.38;10430287;28;20136;-67
2023/08/25 02:07:02;;;;;;;33.38;24.15;;;;;;;18.79;100.00;100785.56;10436455;28;20052;-67
2023/08/25 02:12:03;;;;;;;32.97;23.67;;;;;;;18.72;100.00;100776.75;10433175;28;20033;-67
2023/08/25 02:17:03;;;;;;;34.70;24.65;;;;;;;18.57;100.00;100766.75;10433609;28;20029;-67
2023/08/25 02:22:04;;;;;;;31.83;23.25;;;;;;;18.53;100.00;100768.53;10438410;28;20067;-67
2023/08/25 02:27:04;;;;;;;32.05;22.88;;;;;;;18.45;100.00;100766.47;10443863;28;20118;-68
2023/08/25 02:32:05;;;;;;;35.65;25.25;;;;;;;18.44;100.00;100764.78;10440139;28;20049;-67
2023/08/25 02:37:06;;;;;;;39.13;27.00;;;;;;;18.50;100.00;100760.75;10445528;28;20053;-67
2023/08/25 02:42:06;;;;;;;39.50;26.60;;;;;;;18.56;100.00;100753.94;10439611;28;20048;-68
2023/08/25 02:47:07;;;;;;;44.55;27.95;;;;;;;18.57;100.00;100757.56;10447195;28;20418;-67
2023/08/25 02:52:07;;;;;;;41.42;27.10;;;;;;;18.55;100.00;100746.72;10438262;28;20049;-70
2023/08/25 02:57:08;;;;;;;42.78;29.63;;;;;;;18.50;100.00;100744.88;10444841;28;20040;-67
2023/08/25 03:02:08;;;;;;;43.20;28.02;;;;;;;18.41;100.00;100740.34;10444122;28;20128;-68
2023/08/25 03:07:09;;;;;;;49.38;29.40;;;;;;;18.29;100.00;100738.06;10443808;28;20045;-67
2023/08/25 03:12:09;;;;;;;49.22;32.03;;;;;;;18.18;100.00;100736.63;10443379;28;20059;-67
2023/08/25 03:17:10;;;;;;;48.63;31.13;;;;;;;18.18;100.00;100731.06;10438503;28;20065;-67
2023/08/25 03:22:11;;;;;;;55.15;32.63;;;;;;;18.25;100.00;100726.72;10440035;28;20033;-67
2023/08/25 03:27:11;;;;;;;54.92;34.50;;;;;;;18.30;100.00;100729.41;10435400;28;20056;-68
2023/08/25 03:32:12;;;;;;;60.10;32.15;;;;;;;18.28;100.00;100726.09;10438428;28;20033;-68
2023/08/25 03:37:12;;;;;;;53.45;33.35;;;;;;;18.21;100.00;100724.84;10435594;28;20048;-67
2023/08/25 03:42:13;;;;;;;56.20;32.20;;;;;;;18.11;100.00;100723.13;10437872;28;20555;-67
2023/08/25 03:47:13;;;;;;;58.25;33.15;;;;;;;18.00;100.00;100721.66;10441681;28;20041;-67
2023/08/25 03:52:14;;;;;;;61.78;35.38;;;;;;;17.92;100.00;100718.44;10416458;28;20037;-68
2023/08/25 03:57:14;;;;;;;65.80;35.75;;;;;;;17.92;100.00;100720.38;10434453;28;20037;-67
2023/08/25 04:02:15;;;;;;;66.25;35.85;;;;;;;17.89;100.00;100718.22;10422988;28;20037;-68
2023/08/25 04:07:15;;;;;;;63.92;36.47;;;;;;;17.88;100.00;100722.13;10430457;28;20099;-68
2023/08/25 04:12:16;;;;;;;71.85;37.83;;;;;;;17.91;100.00;100713.19;10394115;28;1119723;-68
2023/08/25 04:17:16;;;;;;;77.18;38.10;;;;;;;17.92;100.00;100701.75;10435987;28;20041;-67
2023/08/25 04:22:17;;;;;;;69.53;38.17;;;;;;;18.05;100.00;100716.00;10439039;28;20029;-67
2023/08/25 04:27:17;;;;;;;69.78;38.17;;;;;;;18.11;100.00;100709.19;10438090;28;20045;-67
2023/08/25 04:32:18;;;;;;;77.97;38.97;;;;;;;18.16;100.00;100706.28;10441829;28;20049;-66
2023/08/25 04:37:19;;;;;;;74.75;38.83;;;;;;;18.18;100.00;100694.84;10436524;28;25378;-67
2023/08/25 04:42:19;;;;;;;74.57;39.58;;;;;;;18.23;100.00;100684.41;10438334;28;20044;-69
2023/08/25 04:47:20;;;;;;;69.53;37.22;;;;;;;18.27;100.00;100679.03;10435687;28;20064;-66
2023/08/25 04:52:20;;;;;;;69.68;38.95;;;;;;;18.29;100.00;100685.97;10437009;28;20048;-67
2023/08/25 04:57:21;;;;;;;74.43;38.78;;;;;;;18.39;100.00;100678.50;10439922;28;20052;-68
2023/08/25 05:02:21;;;;;;;78.85;40.65;;;;;;;18.47;100.00;100677.78;10431591;28;20044;-67
2023/08/25 05:07:22;;;;;;;72.05;40.08;;;;;;;18.43;100.00;100683.13;10412809;28;20496;-68
2023/08/25 05:12:22;;;;;;;76.35;40.25;;;;;;;18.40;100.00;100685.72;10431597;28;20038;-67
2023/08/25 05:17:23;;;;;;;73.05;39.33;;;;;;;18.48;100.00;100691.41;10430780;28;20073;-65
2023/08/25 05:22:23;;;;;;;69.82;37.80;;;;;;;18.55;100.00;100707.69;10464475;28;20037;-67
2023/08/25 05:27:24;;;;;;;68.07;38.35;;;;;;;18.62;100.00;100708.09;10435172;28;20041;-68
2023/08/25 05:32:24;;;;;;;63.67;36.63;;;;;;;18.67;100.00;100696.84;10416370;28;20037;-67
2023/08/25 05:37:25;;;;;;;66.38;37.55;;;;;;;18.76;100.00;100696.91;10438629;28;20037;-67
2023/08/25 05:42:27;;;;;;;65.28;37.08;;;;;;;18.90;100.00;100708.06;10437300;28;20042;-67
2023/08/25 05:47:27;;;;;;;68.60;37.88;;;;;;;19.03;100.00;100715.56;10436504;28;20053;-69
2023/08/25 05:52:28;;;;;;;63.03;36.83;;;;;;;19.09;100.00;100719.88;10434963;28;20078;-68
2023/08/25 05:57:28;;;;;;;69.43;38.03;;;;;;;19.24;100.00;100715.06;10433593;28;20060;-68
2023/08/25 06:02:29;;;;;;;66.90;38.03;;;;;;;19.40;100.00;100727.50;10436126;28;20067;-68
2023/08/25 06:07:29;;;;;;;62.75;36.15;;;;;;;19.45;100.00;100732.97;10433042;28;20050;-66
2023/08/25 06:12:30;;;;;;;63.65;37.13;;;;;;;19.50;100.00;100741.19;10434751;28;21148;-68
2023/08/25 06:17:30;;;;;;;61.08;34.90;;;;;;;19.49;100.00;100739.56;10433065;28;20117;-68
2023/08/25 06:22:31;;;;;;;63.47;35.97;;;;;;;19.40;100.00;100735.88;10438842;28;20053;-69
2023/08/25 06:27:31;;;;;;;64.15;36.80;;;;;;;19.34;100.00;100734.34;10430676;28;20053;-67
2023/08/25 06:32:32;;;;;;;64.03;37.35;;;;;;;19.40;100.00;100738.66;10429773;28;20069;-68
2023/08/25 06:37:32;;;;;;;67.68;37.88;;;;;;;19.55;100.00;100718.75;10430648;28;20045;-68
2023/08/25 06:42:33;;;;;;;67.75;37.85;;;;;;;19.74;100.00;100720.50;10432292;28;20037;-68
2023/08/25 06:47:34;;;;;;;59.85;36.05;;;;;;;20.09;100.00;100726.28;10431160;28;20108;-67
2023/08/25 06:52:36;;;;;;;55.75;32.92;;;;;;;20.04;100.00;100693.72;10433021;28;20060;-67
2023/08/25 06:57:36;;;;;;;55.90;32.15;;;;;;;20.58;100.00;100724.31;10433362;28;20057;-68
2023/08/25 07:02:37;;;;;;;49.60;32.33;;;;;;;20.60;100.00;100721.22;10432807;28;20033;-68
2023/08/25 07:07:37;;;;;;;52.08;30.92;;;;;;;20.65;100.00;100733.06;10416043;28;20398;-68
2023/08/25 07:12:39;;;;;;;54.58;33.47;;;;;;;20.80;100.00;100734.56;10423625;28;20042;-67
2023/08/25 07:17:40;;;;;;;56.70;31.50;;;;;;;20.96;100.00;100748.94;10424547;28;20060;-68
2023/08/25 07:22:40;;;;;;;50.00;32.80;;;;;;;21.02;100.00;100753.19;10424048;28;20133;-68
2023/08/25 07:27:41;;;;;;;51.65;31.90;;;;;;;21.01;100.00;100750.75;10410456;28;20049;-68
2023/08/25 07:32:42;;;;;;;53.50;33.65;;;;;;;21.05;100.00;100734.94;10412157;28;20041;-67
2023/08/25 07:37:42;;;;;;;47.30;31.88;;;;;;;21.29;100.00;100734.41;10438361;28;20041;-68
2023/08/25 07:42:43;;;;;;;47.22;29.73;;;;;;;21.40;100.00;100709.72;10443925;28;20416;-68
2023/08/25 07:47:43;;;;;;;47.10;29.85;;;;;;;21.81;100.00;100716.72;10427401;28;20681;-68
2023/08/25 07:52:44;;;;;;;48.65;29.80;;;;;;;21.99;100.00;100718.31;10418765;28;20056;-67
2023/08/25 07:57:46;;;;;;;51.83;29.58;;;;;;;22.09;100.00;100711.53;10412007;28;20049;-68
2023/08/25 08:02:46;;;;;;;47.00;28.00;;;;;;;22.48;100.00;100715.97;10412641;28;20048;-67
2023/08/25 08:07:48;;;;;;;47.50;29.33;;;;;;;22.64;100.00;100715.41;10428457;28;20061;-67
2023/08/25 08:12:48;;;;;;;47.00;28.95;;;;;;;22.29;100.00;100673.53;10438810;28;20037;-67
2023/08/25 08:17:48;;;;;;;54.58;28.85;;;;;;;22.54;100.00;100711.00;10422589;28;20417;-67
2023/08/25 08:22:49;;;;;;;51.47;30.85;;;;;;;22.69;100.00;100704.78;10419040;28;20515;-67
2023/08/25 08:27:49;;;;;;;48.10;27.52;;;;;;;22.71;100.00;100688.41;10410304;28;20038;-67
2023/08/25 08:32:50;;;;;;;51.67;29.17;;;;;;;22.70;100.00;100681.19;10432231;28;20029;-67
2023/08/25 08:37:50;;;;;;;45.35;26.00;;;;;;;22.71;100.00;100680.00;10419648;28;20144;-67
2023/08/25 08:42:52;;;;;;;39.58;24.83;;;;;;;22.80;100.00;100674.34;10422841;28;20465;-67
2023/08/25 08:47:52;;;;;;;47.45;26.67;;;;;;;22.76;100.00;100685.44;10428361;28;20046;-67
2023/08/25 08:52:53;;;;;;;46.08;25.67;;;;;;;22.60;100.00;100692.81;10421247;28;20030;-66
2023/08/25 08:57:53;;;;;;;49.20;27.05;;;;;;;22.34;100.00;100712.59;10437416;28;20053;-66
2023/08/25 09:02:54;;;;;;;48.80;28.13;;;;;;;22.29;100.00;100719.22;10437175;28;20048;-66
2023/08/25 09:07:57;;;;;;;43.53;26.52;;;;;;;22.34;100.00;100733.03;10418067;28;20038;-66
2023/08/25 09:12:57;;;;;;;42.58;25.13;;;;;;;22.35;100.00;100731.88;10436295;28;20052;-67
2023/08/25 09:18:07;;;;;;;47.63;25.98;;;;;;;22.35;100.00;100742.28;10436081;28;20048;-67
2023/08/25 09:23:08;;;;;;;49.22;27.20;;;;;;;22.22;100.00;100744.13;10414991;28;20130;-66
2023/08/25 09:28:09;;;;;;;43.08;25.85;;;;;;;22.18;100.00;100743.16;10432397;28;20096;-67
2023/08/25 09:33:13;;;;;;;52.67;28.48;;;;;;;21.99;100.00;100735.13;10436813;28;20044;-66
2023/08/25 09:38:21;;;;;;;48.13;27.55;;;;;;;22.03;100.00;100752.13;10418735;28;20041;-67
2023/08/25 09:43:29;;;;;;;45.42;26.08;;;;;;;22.11;100.00;100743.66;10431196;28;20045;-66
2023/08/25 09:48:32;;;;;;;43.45;26.40;;;;;;;22.18;100.00;100745.97;10428734;28;20048;-67
2023/08/25 09:53:33;;;;;;;43.33;26.67;;;;;;;22.13;100.00;100751.75;10433458;28;20049;-66
2023/08/25 09:58:33;;;;;;;45.10;26.98;;;;;;;22.12;100.00;100750.13;10432944;28;20041;-67
2023/08/25 10:03:34;;;;;;;41.75;24.33;;;;;;;22.04;100.00;100739.75;10435053;28;20065;-66
2023/08/25 10:08:34;;;;;;;45.00;26.17;;;;;;;21.96;100.00;100745.03;10420168;28;20111;-67
2023/08/25 10:13:35;;;;;;;48.33;27.58;;;;;;;21.84;100.00;100747.72;10431200;28;20064;-66
2023/08/25 10:18:42;;;;;;;47.50;27.98;;;;;;;21.92;100.00;100734.84;10430892;28;20037;-66
2023/08/25 10:23:43;;;;;;;47.90;28.73;;;;;;;21.87;100.00;100681.75;10430617;28;20052;-67
2023/08/25 10:28:44;;;;;;;47.60;28.27;;;;;;;22.75;100.00;100723.06;10435414;28;20048;-67
2023/08/25 10:33:51;;;;;;;42.17;24.30;;;;;;;23.05;100.00;100717.44;10438224;28;20039;-66
2023/08/25 10:38:55;;;;;;;41.25;25.75;;;;;;;23.05;100.00;100739.91;10405447;28;20041;-66
2023/08/25 10:43:55;;;;;;;43.80;26.20;;;;;;;23.15;100.00;100736.69;10437931;28;20041;-67
2023/08/25 10:49:07;;;;;;;40.25;26.15;;;;;;;23.23;100.00;100734.13;10442901;28;20045;-67
2023/08/25 10:54:20;;;;;;;42.08;26.48;;;;;;;22.84;100.00;100736.22;10431552;28;20052;-67
2023/08/25 10:59:20;;;;;;;38.63;24.55;;;;;;;22.71;100.00;100736.13;10443403;28;20057;-66
2023/08/25 11:04:29;;;;;;;39.67;23.67;;;;;;;22.38;100.00;100735.19;10441059;28;20060;-67
2023/08/25 11:09:31;;;;;;;47.05;25.83;;;;;;;22.10;100.00;100736.44;10440070;28;20037;-66
2023/08/25 11:14:33;;;;;;;45.53;25.80;;;;;;;21.75;100.00;100724.50;10437937;28;20045;-67
2023/08/25 11:19:37;;;;;;;46.70;27.67;;;;;;;21.54;100.00;100730.81;10402136;28;20041;-68
2023/08/25 11:24:39;;;;;;;38.35;23.98;;;;;;;21.40;100.00;100740.53;10396573;28;20056;-68
2023/08/25 11:29:49;;;;;;;45.15;26.60;;;;;;;21.13;100.00;100706.94;10397199;28;20040;-68
2023/08/25 11:34:49;;;;;;;42.00;25.30;;;;;;;21.39;100.00;100728.47;10427316;28;20095;-67
2023/08/25 11:39:50;;;;;;;36.90;23.17;;;;;;;21.94;100.00;100722.13;10433602;28;20039;-68
2023/08/25 11:44:52;;;;;;;33.33;22.10;;;;;;;22.73;100.00;100713.34;10430296;28;20052;-68
2023/08/25 11:49:54;;;;;;;31.77;18.77;;;;;;;23.22;100.00;100695.97;10445695;28;20038;-69
2023/08/25 11:54:54;;;;;;;22.80;17.50;;;;;;;23.45;100.00;100690.78;10420030;28;20137;-68
2023/08/25 11:59:55;;;;;;;28.98;19.20;;;;;;;23.67;100.00;100698.81;10424889;28;20127;-68
2023/08/25 12:04:56;;;;;;;27.08;18.10;;;;;;;24.02;100.00;100689.16;10396657;28;20033;-68
2023/08/25 12:09:59;;;;;;;27.95;17.83;;;;;;;24.83;100.00;100672.50;10408197;28;20041;-68
2023/08/25 12:14:59;;;;;;;27.30;17.58;;;;;;;24.92;100.00;100681.59;10421593;28;20052;-68
2023/08/25 12:20:00;;;;;;;25.08;17.63;;;;;;;24.79;100.00;100671.56;10420869;28;20043;-67
2023/08/25 12:25:00;;;;;;;28.02;17.10;;;;;;;24.54;100.00;100694.13;10417274;28;20041;-68
2023/08/25 12:30:01;;;;;;;22.13;14.27;;;;;;;24.14;100.00;100687.22;10414608;28;20033;-68
2023/08/25 12:35:01;;;;;;;18.23;12.77;;;;;;;23.93;100.00;100695.72;10415730;28;20061;-68
2023/08/25 12:40:05;;;;;;;20.83;13.90;;;;;;;23.92;100.00;100680.03;10442366;28;20411;-68
2023/08/25 12:45:06;;;;;;;19.00;12.75;;;;;;;24.80;100.00;100667.56;10440958;28;20249;-68
2023/08/25 12:50:07;;;;;;;17.08;11.13;;;;;;;25.79;100.00;100660.28;10438727;28;20044;-67
2023/08/25 12:55:10;;;;;;;18.95;12.55;;;;;;;25.83;100.00;100644.28;10427384;28;20048;-67
2023/08/25 13:00:11;;;;;;;16.63;12.45;;;;;;;25.23;100.00;100637.84;10423062;28;20166;-67
2023/08/25 13:05:12;;;;;;;20.42;13.63;;;;;;;24.72;100.00;100655.25;10438966;28;20037;-67
2023/08/25 13:10:12;;;;;;;19.85;11.60;;;;;;;23.94;100.00;100665.63;10421771;28;20041;-67
2023/08/25 13:15:14;;;;;;;14.13;10.25;;;;;;;23.55;100.00;100665.88;10433021;28;20037;-68
2023/08/25 13:20:14;;;;;;;12.65;7.95;;;;;;;23.25;100.00;100675.63;10420119;28;20036;-68
2023/08/25 13:25:15;;;;;;;9.60;6.45;;;;;;;22.89;100.00;100671.47;10417386;28;20052;-68
2023/08/25 13:30:15;;;;;;;10.55;6.05;;;;;;;22.67;100.00;100648.16;10421216;28;20041;-67
2023/08/25 13:35:16;;;;;;;20.88;11.73;;;;;;;22.53;100.00;100648.47;10419977;28;20044;-67
2023/08/25 13:40:16;;;;;;;26.83;15.63;;;;;;;22.63;100.00;100660.44;10424197;28;20099;-65
2023/08/25 13:45:17;;;;;;;32.42;20.65;;;;;;;22.44;100.00;100632.84;10422578;28;20103;-67
2023/08/25 13:50:18;;;;;;;31.98;22.48;;;;;;;22.11;100.00;100617.50;10434797;28;20137;-68
2023/08/25 13:55:18;;;;;;;36.47;22.95;;;;;;;21.98;100.00;100623.38;10438405;28;20044;-67
2023/08/25 14:00:19;;;;;;;34.92;21.85;;;;;;;21.78;100.00;100645.38;10432889;28;20052;-68
2023/08/25 14:05:21;;;;;;;37.55;22.40;;;;;;;21.52;100.00;100642.69;10427431;28;20065;-68
2023/08/25 14:10:22;;;;;;;31.10;22.52;;;;;;;21.28;100.00;100649.59;10438192;28;20045;-68
2023/08/25 14:15:23;;;;;;;35.40;21.70;;;;;;;21.07;100.00;100638.28;10434788;28;20044;-68
2023/08/25 14:20:23;;;;;;;34.50;22.30;;;;;;;20.87;100.00;100639.78;10445654;28;20359;-68
2023/08/25 14:25:23;;;;;;;34.72;23.90;;;;;;;20.71;100.00;100641.41;10446241;28;20037;-68
2023/08/25 14:30:24;;;;;;;41.00;24.40;;;;;;;20.53;100.00;100651.75;10441073;28;20068;-68
2023/08/25 14:35:26;;;;;;;37.75;22.65;;;;;;;20.26;100.00;100662.06;10439173;28;20041;-67
2023/08/25 14:40:26;;;;;;;65.07;30.58;;;;;;;20.05;100.00;100652.59;10438606;28;20045;-66
2023/08/25 14:45:27;;;;;;;47.95;27.17;;;;;;;19.96;100.00;100614.28;10443454;28;20495;-70
2023/08/25 14:50:28;;;;;;;44.13;23.77;;;;;;;19.97;100.00;100634.69;10443692;28;20041;-70
2023/08/25 14:55:28;;;;;;;57.08;29.23;;;;;;;20.08;100.00;100641.63;10442676;28;20037;-71
2023/08/25 15:00:29;;;;;;;50.15;29.67;;;;;;;20.33;100.00;100642.81;10443381;28;20053;-72
2023/08/25 15:05:30;;;;;;;43.88;27.30;;;;;;;20.91;100.00;100651.13;10444188;28;20037;-72
2023/08/25 15:10:30;;;;;;;37.33;23.33;;;;;;;20.86;100.00;100646.53;10442070;28;20032;-72
2023/08/25 15:15:30;;;;;;;30.50;21.33;;;;;;;20.72;100.00;100649.47;10448694;28;20049;-71
2023/08/25 15:20:31;;;;;;;23.40;15.10;;;;;;;20.50;100.00;100644.00;10440567;28;20053;-73
2023/08/25 15:25:32;;;;;;;29.50;18.15;;;;;;;20.23;100.00;100645.94;10394963;28;20210;-72
2023/08/25 15:30:33;;;;;;;29.88;18.65;;;;;;;20.20;100.00;100626.22;10393867;28;20131;-72
2023/08/25 15:35:33;;;;;;;25.65;16.88;;;;;;;20.18;100.00;100611.72;10394001;28;20046;-73
2023/08/25 15:40:34;;;;;;;29.10;18.10;;;;;;;20.17;100.00;100616.47;10397492;28;20041;-72
2023/08/25 15:45:34;;;;;;;30.17;18.27;;;;;;;20.25;100.00;100584.09;10387933;28;20046;-72
2023/08/25 15:50:35;;;;;;;25.70;16.52;;;;;;;21.21;100.00;100603.66;10396446;28;20033;-72
2023/08/25 15:55:35;;;;;;;19.42;15.02;;;;;;;21.31;100.00;100620.97;10396226;28;20501;-72
2023/08/25 16:00:37;;;;;;;22.15;14.75;;;;;;;21.11;100.00;100624.44;10392090;28;20034;-73
2023/08/25 16:05:37;;;;;;;25.80;17.08;;;;;;;20.91;100.00;100623.16;10392248;28;20064;-72
2023/08/25 16:10:38;;;;;;;25.35;18.50;;;;;;;20.76;100.00;100586.13;10390840;28;20048;-72
2023/08/25 16:15:41;;;;;;;28.27;18.17;;;;;;;20.87;100.00;100613.78;10392688;28;20378;-72
2023/08/25 16:20:41;;;;;;;26.98;18.15;;;;;;;20.49;100.00;100617.19;10396814;28;20041;-72
2023/08/25 16:25:42;;;;;;;26.13;18.75;;;;;;;20.25;100.00;100598.09;10393729;28;20049;-72
2023/08/25 16:30:43;;;;;;;29.48;19.10;;;;;;;20.52;100.00;100574.59;10394571;28;20049;-71
2023/08/25 16:35:43;;;;;;;20.00;15.32;;;;;;;21.07;100.00;100565.50;10391328;28;20040;-73
2023/08/25 16:40:44;;;;;;;20.00;14.73;;;;;;;20.64;100.00;100496.47;10391082;28;20068;-72
2023/08/25 16:45:44;;;;;;;26.88;15.38;;;;;;;21.10;100.00;100592.81;10389914;28;20052;-72
2023/08/25 16:50:45;;;;;;;21.23;14.30;;;;;;;20.87;100.00;100596.97;10391155;28;20038;-69
2023/08/25 16:55:46;;;;;;;20.95;15.95;;;;;;;20.49;100.00;100578.06;10394447;28;20052;-68
2023/08/25 17:00:47;;;;;;;22.27;16.85;;;;;;;20.12;100.00;100585.91;10391032;28;20044;-72
2023/08/25 17:05:48;;;;;;;33.42;18.42;;;;;;;19.80;100.00;100579.56;10392218;28;20041;-71
2023/08/25 17:10:49;;;;;;;26.10;19.20;;;;;;;19.77;100.00;100596.97;10391387;28;20064;-71
2023/08/25 17:15:50;;;;;;;27.75;17.77;;;;;;;19.49;100.00;100580.44;10385795;28;20045;-71
2023/08/25 17:20:50;;;;;;;29.35;17.55;;;;;;;19.31;100.00;100585.09;10413677;28;20107;-71
2023/08/25 17:25:51;;;;;;;29.25;19.27;;;;;;;19.26;100.00;100601.97;10422346;28;20476;-71
2023/08/25 17:30:51;;;;;;;28.58;18.83;;;;;;;19.04;100.00;100591.66;10462168;28;20030;-72
2023/08/25 17:35:51;;;;;;;40.38;22.05;;;;;;;19.04;100.00;100608.41;10437670;28;20048;-71
2023/08/25 17:40:52;;;;;;;33.75;20.52;;;;;;;18.83;100.00;100624.00;10445469;28;20044;-70
2023/08/25 17:45:56;;;;;;;31.67;21.77;;;;;;;18.58;100.00;100617.84;10435221;28;20048;-70
2023/08/25 17:50:57;;;;;;;30.23;19.45;;;;;;;18.45;100.00;100618.72;10427989;28;20099;-71
2023/08/25 17:55:57;;;;;;;34.92;18.80;;;;;;;18.31;100.00;100624.31;10437487;28;20099;-70
2023/08/25 18:01:04;;;;;;;27.63;18.13;;;;;;;18.10;100.00;100619.19;10433795;28;20543;-71
2023/08/25 18:06:04;;;;;;;;;;;;;;;18.14;100.00;100630.53;10423765;28;20048;-72
2023/08/25 18:11:05;;;;;;;33.95;19.77;;;;;;;18.05;100.00;100635.22;10441201;28;19920;-72
2023/08/25 18:16:06;;;;;;;34.88;21.85;;;;;;;18.03;100.00;100634.69;10436612;28;20052;-71
2023/08/25 18:21:06;;;;;;;41.13;24.30;;;;;;;17.93;100.00;100639.31;10436035;28;20044;-70
2023/08/25 18:26:07;;;;;;;43.35;24.13;;;;;;;17.95;100.00;100634.25;10437161;28;20049;-70
2023/08/25 18:31:07;;;;;;;41.25;23.13;;;;;;;17.92;100.00;100622.91;10431680;28;20037;-71
2023/08/25 18:36:08;;;;;;;39.08;21.40;;;;;;;17.76;100.00;100636.31;10431573;28;20037;-71
2023/08/25 18:41:09;;;;;;;39.20;20.92;;;;;;;17.71;100.00;100647.53;10407277;28;20049;-71
2023/08/25 18:46:09;;;;;;;36.75;22.17;;;;;;;17.64;100.00;100644.34;10433035;28;20045;-71
2023/08/25 18:51:10;;;;;;;44.35;22.23;;;;;;;17.65;100.00;100627.34;10463810;28;20045;-72
2023/08/25 18:56:11;;;;;;;40.03;22.30;;;;;;;17.57;100.00;100639.19;10432033;28;20033;-72
2023/08/25 19:01:12;;;;;;;42.03;24.17;;;;;;;17.48;100.00;100661.31;10435369;28;20536;-72
2023/08/25 19:06:13;;;;;;;45.78;23.98;;;;;;;17.43;100.00;100652.25;10440744;28;20045;-72
2023/08/25 19:11:13;;;;;;;43.58;22.35;;;;;;;17.36;100.00;100644.28;10441624;28;20037;-71
2023/08/25 19:16:14;;;;;;;43.28;21.95;;;;;;;17.24;100.00;100647.56;10441843;28;20033;-71
2023/08/25 19:21:15;;;;;;;43.22;22.73;;;;;;;17.13;100.00;100658.00;10444762;28;20041;-71
2023/08/25 19:26:16;;;;;;;43.55;23.92;;;;;;;17.15;100.00;100661.31;10465315;28;20075;-68
2023/08/25 19:31:17;;;;;;;37.85;21.27;;;;;;;17.15;100.00;100655.75;10434886;28;20045;-71
2023/08/25 19:36:17;;;;;;;42.63;21.55;;;;;;;17.18;100.00;100662.69;10423805;28;20033;-72
2023/08/25 19:41:19;;;;;;;47.00;25.05;;;;;;;17.17;100.00;100652.69;10442850;28;20060;-72
2023/08/25 19:46:19;;;;;;;43.85;23.88;;;;;;;17.15;100.00;100650.19;10444707;28;20040;-71
2023/08/25 19:51:20;;;;;;;47.33;26.58;;;;;;;17.09;100.00;100653.38;10462636;28;20520;-71
2023/08/25 19:56:20;;;;;;;49.28;25.30;;;;;;;17.10;100.00;100650.28;10430390;28;20116;-71
2023/08/25 20:01:21;;;;;;;48.13;24.90;;;;;;;17.02;100.00;100642.63;10430114;28;20037;-72
2023/08/25 20:06:21;;;;;;;54.13;27.33;;;;;;;16.94;100.00;100643.31;10439889;28;20041;-72
2023/08/25 20:11:23;;;;;;;51.60;26.13;;;;;;;16.85;100.00;100628.47;10439025;28;20045;-71
2023/08/25 20:16:23;;;;;;;58.75;30.95;;;;;;;16.79;100.00;100636.03;10444466;28;20096;-71
2023/08/25 20:21:25;;;;;;;60.63;29.63;;;;;;;16.59;100.00;100605.75;10421463;28;20047;-72
2023/08/25 20:26:25;;;;;;;55.05;28.65;;;;;;;16.60;100.00;100630.47;10447713;28;20501;-72
2023/08/25 20:31:26;;;;;;;59.55;30.15;;;;;;;16.53;100.00;100643.91;10477565;28;20033;-71
2023/08/25 20:36:26;;;;;;;55.17;29.75;;;;;;;16.51;100.00;100641.44;10439806;28;20048;-71
2023/08/25 20:41:26;;;;;;;56.30;28.73;;;;;;;16.45;100.00;100647.38;10434841;28;20622;-71
2023/08/25 20:46:27;;;;;;;56.85;29.20;;;;;;;16.33;100.00;100631.97;10436158;28;20041;-70
2023/08/25 20:51:27;;;;;;;60.05;28.70;;;;;;;16.22;100.00;100641.56;10433826;28;20405;-70
2023/08/25 20:56:28;;;;;;;55.20;29.75;;;;;;;16.18;100.00;100651.59;10431446;28;20441;-70
2023/08/25 21:01:28;;;;;;;64.20;31.88;;;;;;;16.10;100.00;100663.38;10441752;28;20056;-70
2023/08/25 21:06:32;;;;;;;54.90;29.75;;;;;;;16.04;100.00;100657.06;10439939;28;20052;-71
2023/08/25 21:11:33;;;;;;;51.20;28.85;;;;;;;15.99;100.00;100661.84;10437670;28;20049;-71
2023/08/25 21:16:37;;;;;;;59.55;31.13;;;;;;;15.98;100.00;100677.69;10438182;28;20041;-71
2023/08/25 21:21:39;;;;;;;61.42;32.17;;;;;;;15.99;100.00;100686.84;10437877;28;20041;-71
2023/08/25 21:26:40;;;;;;;56.63;29.33;;;;;;;16.07;100.00;100697.31;10438400;28;20557;-71
2023/08/25 21:31:41;;;;;;;60.17;30.92;;;;;;;16.09;100.00;100678.41;10436342;28;20064;-71
2023/08/25 21:36:41;;;;;;;60.67;28.92;;;;;;;16.07;100.00;100683.41;10440596;28;20057;-71
2023/08/25 21:41:42;;;;;;;56.25;28.63;;;;;;;16.02;100.00;100678.75;10443224;28;20036;-71
2023/08/25 21:46:42;;;;;;;55.60;29.83;;;;;;;16.11;100.00;100682.53;10436631;28;20044;-72
2023/08/25 21:51:42;;;;;;;62.67;30.98;;;;;;;16.12;100.00;100677.78;10435910;28;20102;-71
2023/08/25 21:56:43;;;;;;;59.72;30.90;;;;;;;16.05;100.00;100689.25;10436194;28;20038;-72
2023/08/25 22:01:43;;;;;;;64.55;29.48;;;;;;;15.94;100.00;100688.56;10420278;28;20033;-71
2023/08/25 22:06:45;;;;;;;58.55;27.20;;;;;;;15.81;100.00;100667.03;10439681;28;20053;-70
2023/08/25 22:11:48;;;;;;;55.78;28.02;;;;;;;15.80;100.00;100670.94;10431231;28;20041;-71
2023/08/25 22:16:49;;;;;;;56.20;29.65;;;;;;;15.75;100.00;100659.91;10439940;28;20224;-72